sensor_id;sensor_type;location;lat;lon;timestamp;P1;durP1;ratioP1;P2;durP2;ratioP2
12350;SDS011;6240;51.538;7.696;2023-03-03T00:01:04;34.87;;;22.00;;
12350;SDS011;6240;51.538;7.696;2023-03-03T00:03:31;34.37;;;22.70;;
12350;SDS011;6240;51.538;7.696;2023-03-03T00:05:58;32.40;;;21.23;;
12350;SDS011;6240;51.538;7.696;2023-03-03T00:08:26;31.70;;;20.70;;
12350;SDS011;6240;51.538;7.696;2023-03-03T00:10:54;31.00;;;20.97;;
12350;SDS011;6240;51.538;7.696;2023-03-03T00:13:22;32.77;;;21.53;;
12350;SDS011;6240;51.538;7.696;2023-03-03T00:15:50;35.27;;;22.40;;
12350;SDS011;6240;51.538;7.696;2023-03-03T00:18:20;29.80;;;19.83;;
12350;SDS011;6240;51.538;7.696;2023-03-03T00:20:48;31.13;;;20.60;;
12350;SDS011;6240;51.538;7.696;2023-03-03T00:23:18;30.93;;;19.73;;
12350;SDS011;6240;51.538;7.696;2023-03-03T00:25:47;30.83;;;18.77;;
12350;SDS011;6240;51.538;7.696;2023-03-03T00:28:19;28.93;;;19.80;;
12350;SDS011;6240;51.538;7.696;2023-03-03T00:30:48;28.43;;;19.03;;
12350;SDS011;6240;51.538;7.696;2023-03-03T00:33:18;25.30;;;17.43;;
12350;SDS011;6240;51.538;7.696;2023-03-03T00:35:52;27.50;;;17.53;;
12350;SDS011;6240;51.538;7.696;2023-03-03T00:38:19;27.80;;;18.33;;
12350;SDS011;6240;51.538;7.696;2023-03-03T00:40:46;26.23;;;17.40;;
12350;SDS011;6240;51.538;7.696;2023-03-03T00:43:16;29.47;;;19.50;;
12350;SDS011;6240;51.538;7.696;2023-03-03T00:45:47;28.77;;;18.17;;
12350;SDS011;6240;51.538;7.696;2023-03-03T00:48:24;28.73;;;18.57;;
12350;SDS011;6240;51.538;7.696;2023-03-03T00:50:52;29.50;;;18.53;;
12350;SDS011;6240;51.538;7.696;2023-03-03T00:53:20;26.93;;;17.93;;
12350;SDS011;6240;51.538;7.696;2023-03-03T00:55:48;28.27;;;18.03;;
12350;SDS011;6240;51.538;7.696;2023-03-03T00:58:16;27.40;;;18.90;;
12350;SDS011;6240;51.538;7.696;2023-03-03T01:00:47;25.80;;;17.73;;
12350;SDS011;6240;51.538;7.696;2023-03-03T01:03:16;28.40;;;18.10;;
12350;SDS011;6240;51.538;7.696;2023-03-03T01:05:44;27.57;;;18.37;;
12350;SDS011;6240;51.538;7.696;2023-03-03T01:08:11;27.50;;;18.47;;
12350;SDS011;6240;51.538;7.696;2023-03-03T01:10:40;26.90;;;17.83;;
12350;SDS011;6240;51.538;7.696;2023-03-03T01:13:07;28.87;;;18.10;;
12350;SDS011;6240;51.538;7.696;2023-03-03T01:15:35;28.17;;;18.13;;
12350;SDS011;6240;51.538;7.696;2023-03-03T01:18:11;29.17;;;18.07;;
12350;SDS011;6240;51.538;7.696;2023-03-03T01:20:39;23.23;;;16.43;;
12350;SDS011;6240;51.538;7.696;2023-03-03T01:23:06;23.10;;;16.63;;
12350;SDS011;6240;51.538;7.696;2023-03-03T01:25:33;26.77;;;17.60;;
12350;SDS011;6240;51.538;7.696;2023-03-03T01:28:00;27.37;;;17.93;;
12350;SDS011;6240;51.538;7.696;2023-03-03T01:30:28;27.17;;;17.47;;
12350;SDS011;6240;51.538;7.696;2023-03-03T01:32:55;26.80;;;17.67;;
12350;SDS011;6240;51.538;7.696;2023-03-03T01:35:24;25.43;;;17.80;;
12350;SDS011;6240;51.538;7.696;2023-03-03T01:37:51;28.60;;;18.43;;
12350;SDS011;6240;51.538;7.696;2023-03-03T01:40:19;27.13;;;17.07;;
12350;SDS011;6240;51.538;7.696;2023-03-03T01:42:46;24.53;;;17.43;;
12350;SDS011;6240;51.538;7.696;2023-03-03T01:45:16;28.10;;;18.77;;
12350;SDS011;6240;51.538;7.696;2023-03-03T01:47:44;26.77;;;17.77;;
12350;SDS011;6240;51.538;7.696;2023-03-03T01:50:13;32.60;;;20.73;;
12350;SDS011;6240;51.538;7.696;2023-03-03T01:52:43;30.40;;;20.87;;
12350;SDS011;6240;51.538;7.696;2023-03-03T01:55:11;29.47;;;20.47;;
12350;SDS011;6240;51.538;7.696;2023-03-03T01:57:39;27.30;;;18.90;;
12350;SDS011;6240;51.538;7.696;2023-03-03T02:00:10;27.97;;;17.83;;
12350;SDS011;6240;51.538;7.696;2023-03-03T02:02:38;25.97;;;16.50;;
12350;SDS011;6240;51.538;7.696;2023-03-03T02:05:05;27.13;;;17.80;;
12350;SDS011;6240;51.538;7.696;2023-03-03T02:07:33;24.60;;;16.40;;
12350;SDS011;6240;51.538;7.696;2023-03-03T02:10:04;26.00;;;16.70;;
12350;SDS011;6240;51.538;7.696;2023-03-03T02:12:32;28.00;;;16.70;;
12350;SDS011;6240;51.538;7.696;2023-03-03T02:15:00;25.10;;;16.37;;
12350;SDS011;6240;51.538;7.696;2023-03-03T02:17:27;24.80;;;16.87;;
12350;SDS011;6240;51.538;7.696;2023-03-03T02:19:57;26.57;;;16.63;;
12350;SDS011;6240;51.538;7.696;2023-03-03T02:22:31;23.77;;;16.10;;
12350;SDS011;6240;51.538;7.696;2023-03-03T02:24:59;25.73;;;16.73;;
12350;SDS011;6240;51.538;7.696;2023-03-03T02:27:28;24.90;;;16.77;;
12350;SDS011;6240;51.538;7.696;2023-03-03T02:29:57;23.07;;;15.93;;
12350;SDS011;6240;51.538;7.696;2023-03-03T02:32:24;25.70;;;17.07;;
12350;SDS011;6240;51.538;7.696;2023-03-03T02:34:51;26.13;;;16.43;;
12350;SDS011;6240;51.538;7.696;2023-03-03T02:37:18;27.13;;;17.03;;
12350;SDS011;6240;51.538;7.696;2023-03-03T02:39:46;23.80;;;15.57;;
12350;SDS011;6240;51.538;7.696;2023-03-03T02:42:14;22.97;;;15.10;;
12350;SDS011;6240;51.538;7.696;2023-03-03T02:44:44;25.13;;;16.60;;
12350;SDS011;6240;51.538;7.696;2023-03-03T02:47:11;24.47;;;15.80;;
12350;SDS011;6240;51.538;7.696;2023-03-03T02:49:39;22.87;;;15.50;;
12350;SDS011;6240;51.538;7.696;2023-03-03T02:52:07;23.47;;;16.07;;
12350;SDS011;6240;51.538;7.696;2023-03-03T02:54:35;24.80;;;15.63;;
12350;SDS011;6240;51.538;7.696;2023-03-03T02:57:03;22.40;;;15.00;;
12350;SDS011;6240;51.538;7.696;2023-03-03T02:59:31;23.10;;;15.10;;
12350;SDS011;6240;51.538;7.696;2023-03-03T03:01:59;24.07;;;16.03;;
12350;SDS011;6240;51.538;7.696;2023-03-03T03:04:27;24.93;;;16.10;;
12350;SDS011;6240;51.538;7.696;2023-03-03T03:06:54;27.47;;;16.43;;
12350;SDS011;6240;51.538;7.696;2023-03-03T03:09:22;23.23;;;15.83;;
12350;SDS011;6240;51.538;7.696;2023-03-03T03:11:49;25.37;;;16.80;;
12350;SDS011;6240;51.538;7.696;2023-03-03T03:14:17;27.20;;;16.63;;
12350;SDS011;6240;51.538;7.696;2023-03-03T03:16:44;27.33;;;17.30;;
12350;SDS011;6240;51.538;7.696;2023-03-03T03:19:13;25.43;;;16.43;;
12350;SDS011;6240;51.538;7.696;2023-03-03T03:21:40;24.07;;;16.23;;
12350;SDS011;6240;51.538;7.696;2023-03-03T03:24:07;25.70;;;16.30;;
12350;SDS011;6240;51.538;7.696;2023-03-03T03:26:35;26.20;;;15.37;;
12350;SDS011;6240;51.538;7.696;2023-03-03T03:29:02;25.90;;;16.93;;
12350;SDS011;6240;51.538;7.696;2023-03-03T03:31:29;25.73;;;16.37;;
12350;SDS011;6240;51.538;7.696;2023-03-03T03:33:56;25.27;;;15.67;;
12350;SDS011;6240;51.538;7.696;2023-03-03T03:36:25;27.13;;;17.40;;
12350;SDS011;6240;51.538;7.696;2023-03-03T03:38:53;24.33;;;16.83;;
12350;SDS011;6240;51.538;7.696;2023-03-03T03:41:20;29.07;;;17.37;;
12350;SDS011;6240;51.538;7.696;2023-03-03T03:43:47;31.83;;;21.50;;
12350;SDS011;6240;51.538;7.696;2023-03-03T03:46:14;34.17;;;22.37;;
12350;SDS011;6240;51.538;7.696;2023-03-03T03:48:41;35.23;;;22.43;;
12350;SDS011;6240;51.538;7.696;2023-03-03T03:51:10;35.07;;;20.70;;
12350;SDS011;6240;51.538;7.696;2023-03-03T03:53:38;34.33;;;20.73;;
12350;SDS011;6240;51.538;7.696;2023-03-03T03:56:06;36.20;;;22.20;;
12350;SDS011;6240;51.538;7.696;2023-03-03T03:58:33;36.80;;;23.00;;
12350;SDS011;6240;51.538;7.696;2023-03-03T04:01:01;34.77;;;21.13;;
12350;SDS011;6240;51.538;7.696;2023-03-03T04:03:28;34.13;;;21.90;;
12350;SDS011;6240;51.538;7.696;2023-03-03T04:05:55;39.73;;;23.17;;
12350;SDS011;6240;51.538;7.696;2023-03-03T04:08:23;34.43;;;21.63;;
12350;SDS011;6240;51.538;7.696;2023-03-03T04:10:52;31.23;;;19.93;;
12350;SDS011;6240;51.538;7.696;2023-03-03T04:13:20;31.70;;;20.13;;
12350;SDS011;6240;51.538;7.696;2023-03-03T04:15:47;33.23;;;20.63;;
12350;SDS011;6240;51.538;7.696;2023-03-03T04:18:14;29.83;;;18.70;;
12350;SDS011;6240;51.538;7.696;2023-03-03T04:20:41;31.60;;;18.77;;
12350;SDS011;6240;51.538;7.696;2023-03-03T04:23:08;25.70;;;17.27;;
12350;SDS011;6240;51.538;7.696;2023-03-03T04:25:36;26.07;;;17.27;;
12350;SDS011;6240;51.538;7.696;2023-03-03T04:28:05;25.40;;;16.03;;
12350;SDS011;6240;51.538;7.696;2023-03-03T04:30:33;25.70;;;16.80;;
12350;SDS011;6240;51.538;7.696;2023-03-03T04:33:00;26.93;;;16.57;;
12350;SDS011;6240;51.538;7.696;2023-03-03T04:35:27;33.50;;;19.97;;
12350;SDS011;6240;51.538;7.696;2023-03-03T04:37:55;31.83;;;19.20;;
12350;SDS011;6240;51.538;7.696;2023-03-03T04:40:22;30.73;;;18.53;;
12350;SDS011;6240;51.538;7.696;2023-03-03T04:42:50;34.60;;;20.33;;
12350;SDS011;6240;51.538;7.696;2023-03-03T04:45:22;34.07;;;20.47;;
12350;SDS011;6240;51.538;7.696;2023-03-03T04:47:52;36.47;;;20.87;;
12350;SDS011;6240;51.538;7.696;2023-03-03T04:50:19;40.20;;;20.37;;
12350;SDS011;6240;51.538;7.696;2023-03-03T04:52:46;35.67;;;21.27;;
12350;SDS011;6240;51.538;7.696;2023-03-03T04:55:13;33.37;;;20.27;;
12350;SDS011;6240;51.538;7.696;2023-03-03T04:57:41;36.83;;;21.33;;
12350;SDS011;6240;51.538;7.696;2023-03-03T05:00:08;35.47;;;19.97;;
12350;SDS011;6240;51.538;7.696;2023-03-03T05:02:38;33.63;;;19.43;;
12350;SDS011;6240;51.538;7.696;2023-03-03T05:05:07;32.87;;;19.43;;
12350;SDS011;6240;51.538;7.696;2023-03-03T05:07:39;39.10;;;21.23;;
12350;SDS011;6240;51.538;7.696;2023-03-03T05:10:09;37.50;;;19.47;;
12350;SDS011;6240;51.538;7.696;2023-03-03T05:12:36;36.40;;;19.07;;
12350;SDS011;6240;51.538;7.696;2023-03-03T05:15:04;37.80;;;21.87;;
12350;SDS011;6240;51.538;7.696;2023-03-03T05:17:31;38.40;;;20.90;;
12350;SDS011;6240;51.538;7.696;2023-03-03T05:20:00;35.43;;;21.10;;
12350;SDS011;6240;51.538;7.696;2023-03-03T05:22:27;35.70;;;19.90;;
12350;SDS011;6240;51.538;7.696;2023-03-03T05:24:54;37.03;;;20.20;;
12350;SDS011;6240;51.538;7.696;2023-03-03T05:27:21;39.83;;;21.43;;
12350;SDS011;6240;51.538;7.696;2023-03-03T05:29:48;37.93;;;21.20;;
12350;SDS011;6240;51.538;7.696;2023-03-03T05:32:16;39.30;;;22.00;;
12350;SDS011;6240;51.538;7.696;2023-03-03T05:34:43;38.40;;;21.77;;
12350;SDS011;6240;51.538;7.696;2023-03-03T05:37:13;35.03;;;20.47;;
12350;SDS011;6240;51.538;7.696;2023-03-03T05:39:44;37.53;;;20.70;;
12350;SDS011;6240;51.538;7.696;2023-03-03T05:42:13;34.83;;;20.03;;
12350;SDS011;6240;51.538;7.696;2023-03-03T05:44:40;32.37;;;19.20;;
12350;SDS011;6240;51.538;7.696;2023-03-03T05:47:07;33.93;;;19.60;;
12350;SDS011;6240;51.538;7.696;2023-03-03T05:49:35;31.53;;;18.50;;
12350;SDS011;6240;51.538;7.696;2023-03-03T05:52:02;32.30;;;19.20;;
12350;SDS011;6240;51.538;7.696;2023-03-03T05:54:31;31.13;;;18.33;;
12350;SDS011;6240;51.538;7.696;2023-03-03T05:56:58;27.83;;;17.40;;
12350;SDS011;6240;51.538;7.696;2023-03-03T05:59:25;29.50;;;17.33;;
12350;SDS011;6240;51.538;7.696;2023-03-03T06:01:53;27.57;;;16.97;;
12350;SDS011;6240;51.538;7.696;2023-03-03T06:04:21;30.43;;;16.70;;
12350;SDS011;6240;51.538;7.696;2023-03-03T06:06:48;33.83;;;18.40;;
12350;SDS011;6240;51.538;7.696;2023-03-03T06:09:19;34.10;;;19.83;;
12350;SDS011;6240;51.538;7.696;2023-03-03T06:11:50;31.00;;;18.13;;
12350;SDS011;6240;51.538;7.696;2023-03-03T06:14:17;29.73;;;17.97;;
12350;SDS011;6240;51.538;7.696;2023-03-03T06:16:45;31.37;;;19.10;;
12350;SDS011;6240;51.538;7.696;2023-03-03T06:19:12;31.93;;;18.40;;
12350;SDS011;6240;51.538;7.696;2023-03-03T06:21:39;30.57;;;18.23;;
12350;SDS011;6240;51.538;7.696;2023-03-03T06:24:07;32.23;;;17.10;;
12350;SDS011;6240;51.538;7.696;2023-03-03T06:26:35;29.03;;;17.90;;
12350;SDS011;6240;51.538;7.696;2023-03-03T06:29:08;33.07;;;18.13;;
12350;SDS011;6240;51.538;7.696;2023-03-03T06:31:36;32.77;;;19.23;;
12350;SDS011;6240;51.538;7.696;2023-03-03T06:34:03;30.20;;;18.50;;
12350;SDS011;6240;51.538;7.696;2023-03-03T06:36:31;30.03;;;18.40;;
12350;SDS011;6240;51.538;7.696;2023-03-03T06:38:59;31.97;;;19.00;;
12350;SDS011;6240;51.538;7.696;2023-03-03T06:41:26;33.37;;;18.70;;
12350;SDS011;6240;51.538;7.696;2023-03-03T06:43:54;31.73;;;17.70;;
12350;SDS011;6240;51.538;7.696;2023-03-03T06:46:23;30.20;;;17.97;;
12350;SDS011;6240;51.538;7.696;2023-03-03T06:48:50;32.17;;;19.13;;
12350;SDS011;6240;51.538;7.696;2023-03-03T06:51:20;33.67;;;19.53;;
12350;SDS011;6240;51.538;7.696;2023-03-03T06:53:49;28.17;;;18.63;;
12350;SDS011;6240;51.538;7.696;2023-03-03T06:56:18;27.83;;;16.97;;
12350;SDS011;6240;51.538;7.696;2023-03-03T06:58:45;26.93;;;16.60;;
12350;SDS011;6240;51.538;7.696;2023-03-03T07:01:14;28.30;;;16.93;;
12350;SDS011;6240;51.538;7.696;2023-03-03T07:03:43;29.90;;;17.77;;
12350;SDS011;6240;51.538;7.696;2023-03-03T07:06:14;28.37;;;17.27;;
12350;SDS011;6240;51.538;7.696;2023-03-03T07:08:43;27.80;;;17.60;;
12350;SDS011;6240;51.538;7.696;2023-03-03T07:11:14;28.63;;;17.57;;
12350;SDS011;6240;51.538;7.696;2023-03-03T07:13:43;27.23;;;16.27;;
12350;SDS011;6240;51.538;7.696;2023-03-03T07:16:11;29.67;;;17.40;;
12350;SDS011;6240;51.538;7.696;2023-03-03T07:18:43;30.67;;;18.17;;
12350;SDS011;6240;51.538;7.696;2023-03-03T07:21:15;30.47;;;17.63;;
12350;SDS011;6240;51.538;7.696;2023-03-03T07:23:44;28.53;;;17.13;;
12350;SDS011;6240;51.538;7.696;2023-03-03T07:26:12;29.70;;;17.43;;
12350;SDS011;6240;51.538;7.696;2023-03-03T07:28:40;29.33;;;17.77;;
12350;SDS011;6240;51.538;7.696;2023-03-03T07:34:00;31.53;;;17.83;;
12350;SDS011;6240;51.538;7.696;2023-03-03T07:36:29;29.80;;;17.53;;
12350;SDS011;6240;51.538;7.696;2023-03-03T07:38:57;40.30;;;21.17;;
12350;SDS011;6240;51.538;7.696;2023-03-03T07:41:27;32.93;;;19.63;;
12350;SDS011;6240;51.538;7.696;2023-03-03T07:43:59;32.20;;;18.87;;
12350;SDS011;6240;51.538;7.696;2023-03-03T07:46:33;43.83;;;25.73;;
12350;SDS011;6240;51.538;7.696;2023-03-03T07:49:08;38.10;;;23.63;;
12350;SDS011;6240;51.538;7.696;2023-03-03T07:51:39;35.37;;;21.63;;
12350;SDS011;6240;51.538;7.696;2023-03-03T07:54:14;33.73;;;19.37;;
12350;SDS011;6240;51.538;7.696;2023-03-03T07:56:45;34.83;;;18.57;;
12350;SDS011;6240;51.538;7.696;2023-03-03T07:59:16;35.90;;;20.70;;
12350;SDS011;6240;51.538;7.696;2023-03-03T08:01:45;33.77;;;20.97;;
12350;SDS011;6240;51.538;7.696;2023-03-03T08:04:19;34.43;;;19.73;;
12350;SDS011;6240;51.538;7.696;2023-03-03T08:06:49;42.27;;;22.00;;
12350;SDS011;6240;51.538;7.696;2023-03-03T08:12:10;39.67;;;20.97;;
12350;SDS011;6240;51.538;7.696;2023-03-03T08:14:41;35.77;;;20.13;;
12350;SDS011;6240;51.538;7.696;2023-03-03T08:17:12;36.50;;;20.30;;
12350;SDS011;6240;51.538;7.696;2023-03-03T08:19:41;37.17;;;20.93;;
12350;SDS011;6240;51.538;7.696;2023-03-03T08:22:11;42.27;;;23.80;;
12350;SDS011;6240;51.538;7.696;2023-03-03T08:24:39;41.53;;;23.67;;
12350;SDS011;6240;51.538;7.696;2023-03-03T08:27:07;36.23;;;21.43;;
12350;SDS011;6240;51.538;7.696;2023-03-03T08:29:34;33.67;;;19.87;;
12350;SDS011;6240;51.538;7.696;2023-03-03T08:32:01;32.70;;;20.53;;
12350;SDS011;6240;51.538;7.696;2023-03-03T08:34:29;38.53;;;21.87;;
12350;SDS011;6240;51.538;7.696;2023-03-03T08:36:57;35.77;;;20.47;;
12350;SDS011;6240;51.538;7.696;2023-03-03T08:39:24;35.37;;;20.40;;
12350;SDS011;6240;51.538;7.696;2023-03-03T08:41:53;33.73;;;20.70;;
12350;SDS011;6240;51.538;7.696;2023-03-03T08:44:25;38.70;;;21.17;;
12350;SDS011;6240;51.538;7.696;2023-03-03T08:46:55;41.30;;;21.37;;
12350;SDS011;6240;51.538;7.696;2023-03-03T08:49:22;47.30;;;23.23;;
12350;SDS011;6240;51.538;7.696;2023-03-03T08:51:49;41.80;;;22.70;;
12350;SDS011;6240;51.538;7.696;2023-03-03T08:54:20;44.53;;;21.80;;
12350;SDS011;6240;51.538;7.696;2023-03-03T08:56:47;41.03;;;21.07;;
12350;SDS011;6240;51.538;7.696;2023-03-03T08:59:14;43.07;;;21.33;;
12350;SDS011;6240;51.538;7.696;2023-03-03T09:01:41;43.13;;;21.23;;
12350;SDS011;6240;51.538;7.696;2023-03-03T09:04:09;42.30;;;20.23;;
12350;SDS011;6240;51.538;7.696;2023-03-03T09:06:36;35.70;;;20.30;;
12350;SDS011;6240;51.538;7.696;2023-03-03T09:09:04;38.37;;;19.97;;
12350;SDS011;6240;51.538;7.696;2023-03-03T09:11:32;38.80;;;19.80;;
12350;SDS011;6240;51.538;7.696;2023-03-03T09:14:01;41.87;;;21.50;;
12350;SDS011;6240;51.538;7.696;2023-03-03T09:16:34;35.90;;;19.57;;
12350;SDS011;6240;51.538;7.696;2023-03-03T09:19:06;39.67;;;20.10;;
12350;SDS011;6240;51.538;7.696;2023-03-03T09:21:46;41.30;;;19.77;;
12350;SDS011;6240;51.538;7.696;2023-03-03T09:24:24;35.10;;;18.87;;
12350;SDS011;6240;51.538;7.696;2023-03-03T09:26:54;35.80;;;19.10;;
12350;SDS011;6240;51.538;7.696;2023-03-03T09:29:24;34.77;;;18.77;;
12350;SDS011;6240;51.538;7.696;2023-03-03T09:31:53;35.50;;;18.17;;
12350;SDS011;6240;51.538;7.696;2023-03-03T09:34:22;36.60;;;19.43;;
12350;SDS011;6240;51.538;7.696;2023-03-03T09:36:50;30.57;;;16.37;;
12350;SDS011;6240;51.538;7.696;2023-03-03T09:39:19;26.47;;;15.70;;
12350;SDS011;6240;51.538;7.696;2023-03-03T09:41:55;28.90;;;15.87;;
12350;SDS011;6240;51.538;7.696;2023-03-03T09:44:35;29.27;;;15.40;;
12350;SDS011;6240;51.538;7.696;2023-03-03T09:47:17;29.80;;;15.67;;
12350;SDS011;6240;51.538;7.696;2023-03-03T09:49:51;28.87;;;15.63;;
12350;SDS011;6240;51.538;7.696;2023-03-03T09:52:26;24.30;;;14.73;;
12350;SDS011;6240;51.538;7.696;2023-03-03T09:55:02;26.37;;;14.43;;
12350;SDS011;6240;51.538;7.696;2023-03-03T09:57:34;26.47;;;14.40;;
12350;SDS011;6240;51.538;7.696;2023-03-03T10:02:53;32.50;;;17.27;;
12350;SDS011;6240;51.538;7.696;2023-03-03T10:05:28;35.23;;;17.70;;
12350;SDS011;6240;51.538;7.696;2023-03-03T10:08:02;34.40;;;17.87;;
12350;SDS011;6240;51.538;7.696;2023-03-03T10:10:37;41.43;;;20.67;;
12350;SDS011;6240;51.538;7.696;2023-03-03T10:13:17;39.07;;;19.87;;
12350;SDS011;6240;51.538;7.696;2023-03-03T10:15:47;40.07;;;19.73;;
12350;SDS011;6240;51.538;7.696;2023-03-03T10:18:20;38.63;;;18.87;;
12350;SDS011;6240;51.538;7.696;2023-03-03T10:21:06;37.97;;;18.50;;
12350;SDS011;6240;51.538;7.696;2023-03-03T10:23:51;37.87;;;19.30;;
12350;SDS011;6240;51.538;7.696;2023-03-03T10:26:22;35.63;;;17.73;;
12350;SDS011;6240;51.538;7.696;2023-03-03T10:28:56;37.97;;;18.37;;
12350;SDS011;6240;51.538;7.696;2023-03-03T10:31:31;37.77;;;19.70;;
12350;SDS011;6240;51.538;7.696;2023-03-03T10:34:03;38.93;;;19.10;;
12350;SDS011;6240;51.538;7.696;2023-03-03T10:36:34;39.27;;;19.53;;
12350;SDS011;6240;51.538;7.696;2023-03-03T10:39:16;36.10;;;18.83;;
12350;SDS011;6240;51.538;7.696;2023-03-03T10:41:54;41.93;;;20.10;;
12350;SDS011;6240;51.538;7.696;2023-03-03T10:44:44;38.00;;;19.57;;
12350;SDS011;6240;51.538;7.696;2023-03-03T10:50:02;37.40;;;18.80;;
12350;SDS011;6240;51.538;7.696;2023-03-03T10:52:43;40.03;;;19.07;;
12350;SDS011;6240;51.538;7.696;2023-03-03T10:55:20;37.37;;;18.33;;
12350;SDS011;6240;51.538;7.696;2023-03-03T10:57:59;38.23;;;18.07;;
12350;SDS011;6240;51.538;7.696;2023-03-03T11:00:32;39.97;;;19.23;;
12350;SDS011;6240;51.538;7.696;2023-03-03T11:03:25;43.40;;;20.70;;
12350;SDS011;6240;51.538;7.696;2023-03-03T11:05:56;39.30;;;19.40;;
12350;SDS011;6240;51.538;7.696;2023-03-03T11:08:26;34.93;;;17.27;;
12350;SDS011;6240;51.538;7.696;2023-03-03T11:10:58;37.13;;;18.17;;
12350;SDS011;6240;51.538;7.696;2023-03-03T11:13:31;44.30;;;19.27;;
12350;SDS011;6240;51.538;7.696;2023-03-03T11:16:12;41.73;;;19.27;;
12350;SDS011;6240;51.538;7.696;2023-03-03T11:18:49;41.63;;;18.43;;
12350;SDS011;6240;51.538;7.696;2023-03-03T11:21:20;36.97;;;17.67;;
12350;SDS011;6240;51.538;7.696;2023-03-03T11:23:54;38.10;;;17.80;;
12350;SDS011;6240;51.538;7.696;2023-03-03T11:26:37;40.23;;;18.77;;
12350;SDS011;6240;51.538;7.696;2023-03-03T11:29:14;39.73;;;17.90;;
12350;SDS011;6240;51.538;7.696;2023-03-03T11:31:51;38.07;;;18.47;;
12350;SDS011;6240;51.538;7.696;2023-03-03T11:34:24;36.87;;;17.33;;
12350;SDS011;6240;51.538;7.696;2023-03-03T11:36:54;37.67;;;16.70;;
12350;SDS011;6240;51.538;7.696;2023-03-03T11:39:23;38.57;;;16.63;;
12350;SDS011;6240;51.538;7.696;2023-03-03T11:41:54;35.33;;;16.60;;
12350;SDS011;6240;51.538;7.696;2023-03-03T11:44:26;41.27;;;18.60;;
12350;SDS011;6240;51.538;7.696;2023-03-03T11:46:59;36.20;;;16.40;;
12350;SDS011;6240;51.538;7.696;2023-03-03T11:49:35;37.43;;;17.20;;
12350;SDS011;6240;51.538;7.696;2023-03-03T11:52:12;41.60;;;18.87;;
12350;SDS011;6240;51.538;7.696;2023-03-03T11:54:45;41.57;;;17.23;;
12350;SDS011;6240;51.538;7.696;2023-03-03T11:57:17;40.07;;;17.53;;
12350;SDS011;6240;51.538;7.696;2023-03-03T11:59:48;37.03;;;16.30;;
12350;SDS011;6240;51.538;7.696;2023-03-03T12:05:10;34.97;;;17.50;;
12350;SDS011;6240;51.538;7.696;2023-03-03T12:07:40;36.80;;;17.30;;
12350;SDS011;6240;51.538;7.696;2023-03-03T12:10:18;37.17;;;17.73;;
12350;SDS011;6240;51.538;7.696;2023-03-03T12:12:54;37.53;;;17.00;;
12350;SDS011;6240;51.538;7.696;2023-03-03T12:15:26;34.10;;;16.37;;
12350;SDS011;6240;51.538;7.696;2023-03-03T12:20:44;38.67;;;17.00;;
12350;SDS011;6240;51.538;7.696;2023-03-03T12:23:17;40.50;;;17.23;;
12350;SDS011;6240;51.538;7.696;2023-03-03T12:25:46;35.50;;;16.63;;
12350;SDS011;6240;51.538;7.696;2023-03-03T12:28:18;36.40;;;17.33;;
12350;SDS011;6240;51.538;7.696;2023-03-03T12:30:52;35.13;;;16.67;;
12350;SDS011;6240;51.538;7.696;2023-03-03T12:33:28;38.20;;;17.10;;
12350;SDS011;6240;51.538;7.696;2023-03-03T12:36:12;33.23;;;16.40;;
12350;SDS011;6240;51.538;7.696;2023-03-03T12:38:47;40.33;;;17.43;;
12350;SDS011;6240;51.538;7.696;2023-03-03T12:41:20;33.67;;;16.27;;
12350;SDS011;6240;51.538;7.696;2023-03-03T12:43:53;35.10;;;16.97;;
12350;SDS011;6240;51.538;7.696;2023-03-03T12:46:27;38.20;;;17.33;;
12350;SDS011;6240;51.538;7.696;2023-03-03T12:48:55;31.27;;;16.17;;
12350;SDS011;6240;51.538;7.696;2023-03-03T12:51:30;30.43;;;14.47;;
12350;SDS011;6240;51.538;7.696;2023-03-03T12:54:07;30.33;;;15.03;;
12350;SDS011;6240;51.538;7.696;2023-03-03T12:56:40;30.03;;;14.97;;
12350;SDS011;6240;51.538;7.696;2023-03-03T12:59:12;30.60;;;13.87;;
12350;SDS011;6240;51.538;7.696;2023-03-03T13:01:51;29.27;;;14.30;;
12350;SDS011;6240;51.538;7.696;2023-03-03T13:04:27;30.90;;;15.20;;
12350;SDS011;6240;51.538;7.696;2023-03-03T13:06:58;32.57;;;15.20;;
12350;SDS011;6240;51.538;7.696;2023-03-03T13:09:32;35.33;;;15.03;;
12350;SDS011;6240;51.538;7.696;2023-03-03T13:12:16;28.20;;;14.03;;
12350;SDS011;6240;51.538;7.696;2023-03-03T13:14:48;27.50;;;13.67;;
12350;SDS011;6240;51.538;7.696;2023-03-03T13:17:19;28.73;;;14.23;;
12350;SDS011;6240;51.538;7.696;2023-03-03T13:19:50;28.57;;;14.80;;
12350;SDS011;6240;51.538;7.696;2023-03-03T13:22:26;34.43;;;16.00;;
12350;SDS011;6240;51.538;7.696;2023-03-03T13:25:02;32.90;;;15.33;;
12350;SDS011;6240;51.538;7.696;2023-03-03T13:27:36;29.47;;;15.40;;
12350;SDS011;6240;51.538;7.696;2023-03-03T13:30:11;29.77;;;14.93;;
12350;SDS011;6240;51.538;7.696;2023-03-03T13:32:42;29.30;;;13.83;;
12350;SDS011;6240;51.538;7.696;2023-03-03T13:35:16;30.00;;;14.47;;
12350;SDS011;6240;51.538;7.696;2023-03-03T13:37:48;28.63;;;14.60;;
12350;SDS011;6240;51.538;7.696;2023-03-03T13:40:19;36.33;;;16.70;;
12350;SDS011;6240;51.538;7.696;2023-03-03T13:42:52;29.60;;;14.47;;
12350;SDS011;6240;51.538;7.696;2023-03-03T13:45:26;26.53;;;13.20;;
12350;SDS011;6240;51.538;7.696;2023-03-03T13:47:59;28.93;;;15.03;;
12350;SDS011;6240;51.538;7.696;2023-03-03T13:50:31;31.37;;;13.93;;
12350;SDS011;6240;51.538;7.696;2023-03-03T13:53:05;26.93;;;14.30;;
12350;SDS011;6240;51.538;7.696;2023-03-03T13:55:35;26.80;;;13.33;;
12350;SDS011;6240;51.538;7.696;2023-03-03T13:58:10;24.83;;;13.60;;
12350;SDS011;6240;51.538;7.696;2023-03-03T14:00:43;26.73;;;14.17;;
12350;SDS011;6240;51.538;7.696;2023-03-03T14:03:16;30.30;;;14.00;;
12350;SDS011;6240;51.538;7.696;2023-03-03T14:05:46;33.67;;;14.87;;
12350;SDS011;6240;51.538;7.696;2023-03-03T14:08:18;26.93;;;13.97;;
12350;SDS011;6240;51.538;7.696;2023-03-03T14:10:51;27.97;;;14.63;;
12350;SDS011;6240;51.538;7.696;2023-03-03T14:13:22;31.30;;;15.13;;
12350;SDS011;6240;51.538;7.696;2023-03-03T14:15:55;28.37;;;15.23;;
12350;SDS011;6240;51.538;7.696;2023-03-03T14:18:27;26.80;;;14.50;;
12350;SDS011;6240;51.538;7.696;2023-03-03T14:20:59;29.13;;;13.63;;
12350;SDS011;6240;51.538;7.696;2023-03-03T14:23:32;29.40;;;14.53;;
12350;SDS011;6240;51.538;7.696;2023-03-03T14:26:05;31.17;;;15.07;;
12350;SDS011;6240;51.538;7.696;2023-03-03T14:28:37;27.57;;;14.17;;
12350;SDS011;6240;51.538;7.696;2023-03-03T14:31:09;30.00;;;15.47;;
12350;SDS011;6240;51.538;7.696;2023-03-03T14:33:41;31.23;;;15.23;;
12350;SDS011;6240;51.538;7.696;2023-03-03T14:36:11;29.97;;;15.37;;
12350;SDS011;6240;51.538;7.696;2023-03-03T14:38:47;28.93;;;14.67;;
12350;SDS011;6240;51.538;7.696;2023-03-03T14:41:19;28.47;;;15.13;;
12350;SDS011;6240;51.538;7.696;2023-03-03T14:43:57;27.70;;;14.87;;
12350;SDS011;6240;51.538;7.696;2023-03-03T17:14:11;37.90;;;20.13;;
12350;SDS011;6240;51.538;7.696;2023-03-03T17:16:47;34.93;;;18.70;;
12350;SDS011;6240;51.538;7.696;2023-03-03T17:19:19;29.03;;;17.20;;
12350;SDS011;6240;51.538;7.696;2023-03-03T17:21:56;31.80;;;16.30;;
12350;SDS011;6240;51.538;7.696;2023-03-03T17:24:27;25.83;;;15.77;;
12350;SDS011;6240;51.538;7.696;2023-03-03T17:27:00;28.43;;;15.93;;
12350;SDS011;6240;51.538;7.696;2023-03-03T17:29:36;33.53;;;17.33;;
12350;SDS011;6240;51.538;7.696;2023-03-03T17:32:09;34.17;;;18.67;;
12350;SDS011;6240;51.538;7.696;2023-03-03T17:34:42;32.23;;;17.87;;
12350;SDS011;6240;51.538;7.696;2023-03-03T17:37:18;35.80;;;17.80;;